KABQ/ABQ METAR and TAF weather

Enter ICAO airport designator
Station Type Date Time Source
KABQ METAR 2021/09/25 02:52 UTC NOAA

KABQ 250252Z 14005KT 10SM FEW130 FEW250 21/04 A3017 RMK AO2 SLP144 T02110044 53015


Station Type Date Time Source
KABQ Decoded METAR 2021/09/25 02:52 UTC NOAA

ALBUQUERQUE INTERNATIONAL AIRPORT, NM, United States (KABQ) 35-02N 106-36W 1618M
Sep 24, 2021 - 10:52 PM EDT / 2021.09.25 0252 UTC
Wind: from the SE (140 degrees) at 6 MPH (5 KT):0
Visibility: 10 mile(s):0
Sky conditions: mostly clear
Temperature: 70.0 F (21.1 C)
Dew Point: 39.9 F (4.4 C)
Relative Humidity: 33%
Pressure (altimeter): 30.17 in. Hg (1021 hPa)
Pressure tendency: 0.04 inches (1.5 hPa) higher than three hours ago
ob: KABQ 250252Z 14005KT 10SM FEW130 FEW250 21/04 A3017 RMK AO2 SLP144 T02110044 53015
cycle: 3

Station Type Date Time Source
KABQ TAF 2021/09/24 18:30 UTC NOAA

TAF KABQ 241728Z 2418/2518 19006KT P6SM SCT100 BKN200
FM250300 13005KT P6SM BKN100
FM251100 08011G21KT P6SM FEW050 SCT120
FM251600 14006KT P6SM SCT060 BKN120

Example: see airport list